Time;durP1;ratioP1;P1;durP2;ratioP2;P2;SDS_P1;SDS_P2;PMS_P1;PMS_P2;Temp;Humidity;BMP_temperature;BMP_pressure;BME280_temperature;BME280_humidity;BME280_pressure;Samples;Min_cycle;Max_cycle;Signal;HPM_P1;HPM_P2
2024/01/28 00:01:54;;;;;;;4.55;2.63;;;20.00;33.00;;;;;;5108885;28;20024;-57
2024/01/28 00:04:19;;;;;;;4.65;2.58;;;20.00;33.00;;;;;;5114213;28;20023;-59
2024/01/28 00:06:45;;;;;;;4.85;2.70;;;20.00;33.00;;;;;;5115257;28;20344;-55
2024/01/28 00:09:11;;;;;;;3.88;2.50;;;20.00;33.00;;;;;;5114893;28;20034;-56
2024/01/28 00:11:37;;;;;;;3.83;2.60;;;20.00;33.00;;;;;;5115274;28;20039;-57
2024/01/28 00:14:03;;;;;;;4.40;2.65;;;20.00;33.00;;;;;;5114521;28;20020;-55
2024/01/28 00:16:29;;;;;;;4.40;2.63;;;20.00;33.00;;;;;;5115804;28;20020;-55
2024/01/28 00:18:58;;;;;;;3.97;2.63;;;20.00;33.00;;;;;;5115441;28;20091;-55
2024/01/28 00:21:27;;;;;;;4.50;2.58;;;20.00;32.90;;;;;;5115057;28;20032;-54
2024/01/28 00:23:53;;;;;;;5.18;2.67;;;20.00;32.90;;;;;;5115430;28;20099;-58
2024/01/28 00:26:19;;;;;;;4.72;2.78;;;20.00;32.90;;;;;;5114394;28;20027;-53
2024/01/28 00:28:45;;;;;;;4.70;2.67;;;20.00;32.90;;;;;;5115353;28;20040;-56
2024/01/28 00:31:12;;;;;;;3.70;2.53;;;20.00;32.80;;;;;;5096598;28;20035;-54
2024/01/28 00:33:38;;;;;;;4.57;2.42;;;20.00;32.80;;;;;;5114601;28;20433;-54
2024/01/28 00:36:04;;;;;;;5.63;2.72;;;20.00;32.70;;;;;;5115326;28;20058;-55
2024/01/28 00:38:31;;;;;;;5.25;2.78;;;20.00;32.70;;;;;;5115077;28;20076;-55
2024/01/28 00:41:00;;;;;;;4.60;2.33;;;19.90;32.60;;;;;;5115271;28;20023;-52
2024/01/28 00:43:27;;;;;;;3.53;2.33;;;19.90;32.60;;;;;;5112996;28;20130;-51
2024/01/28 00:45:53;;;;;;;4.65;2.40;;;19.90;32.60;;;;;;5115182;28;20350;-53
2024/01/28 00:48:19;;;;;;;4.95;2.60;;;19.90;32.60;;;;;;5115205;28;20019;-52
2024/01/28 00:50:44;;;;;;;3.55;2.17;;;19.90;32.60;;;;;;5114909;28;20453;-55
2024/01/28 00:53:10;;;;;;;3.83;2.15;;;19.90;32.60;;;;;;5114987;28;20054;-56
2024/01/28 00:55:36;;;;;;;4.20;2.17;;;19.90;32.60;;;;;;5114948;28;20427;-55
2024/01/28 00:58:02;;;;;;;5.50;2.30;;;19.90;32.60;;;;;;5115297;28;20023;-55
2024/01/28 01:00:28;;;;;;;4.40;2.47;;;19.90;33.20;;;;;;5114707;28;20124;-54
2024/01/28 01:02:54;;;;;;;4.22;2.28;;;19.90;32.60;;;;;;5114492;28;20019;-54
2024/01/28 01:05:20;;;;;;;4.47;2.40;;;19.90;32.50;;;;;;5096427;28;20469;-53
2024/01/28 01:07:46;;;;;;;5.15;2.50;;;19.90;32.50;;;;;;5114772;28;20027;-55
2024/01/28 01:10:12;;;;;;;4.22;2.60;;;19.90;32.50;;;;;;5096942;28;20047;-54
2024/01/28 01:12:38;;;;;;;3.70;2.15;;;19.90;32.50;;;;;;5114559;28;20110;-51
2024/01/28 01:15:04;;;;;;;3.72;2.25;;;19.80;32.50;;;;;;5114834;28;20020;-55
2024/01/28 01:17:29;;;;;;;3.03;1.85;;;19.80;32.40;;;;;;5114870;28;20032;-55
2024/01/28 01:19:55;;;;;;;3.15;1.92;;;19.80;32.40;;;;;;5113528;28;20080;-54
2024/01/28 01:22:21;;;;;;;4.55;2.65;;;19.80;32.40;;;;;;5113933;28;20024;-56
2024/01/28 01:24:47;;;;;;;4.10;2.40;;;19.80;32.50;;;;;;5111230;28;20381;-55
2024/01/28 01:27:13;;;;;;;3.58;2.05;;;19.80;32.40;;;;;;5114450;28;20074;-54
2024/01/28 01:29:39;;;;;;;4.65;2.38;;;19.80;32.40;;;;;;5114631;28;20035;-54
2024/01/28 01:32:05;;;;;;;3.85;2.15;;;19.80;32.30;;;;;;5114213;28;20077;-53
2024/01/28 01:34:30;;;;;;;3.65;2.30;;;19.80;32.30;;;;;;5114314;28;20023;-54
2024/01/28 01:36:56;;;;;;;4.22;2.17;;;19.80;32.40;;;;;;5114034;28;20399;-55
2024/01/28 01:39:22;;;;;;;4.20;2.30;;;19.80;32.40;;;;;;5114097;28;20019;-55
2024/01/28 01:41:48;;;;;;;4.80;2.28;;;19.80;32.30;;;;;;5113179;28;20052;-56
2024/01/28 01:44:13;;;;;;;3.25;2.00;;;19.80;32.40;;;;;;5114213;28;20443;-55
2024/01/28 01:46:41;;;;;;;3.53;1.77;;;19.80;32.30;;;;;;5114063;28;20035;-54
2024/01/28 01:49:08;;;;;;;3.58;2.40;;;19.80;32.30;;;;;;5113928;28;20107;-56
2024/01/28 01:51:34;;;;;;;5.03;2.28;;;19.70;32.20;;;;;;5113943;28;20464;-54
2024/01/28 01:54:01;;;;;;;2.88;1.90;;;19.70;32.20;;;;;;5113577;28;20035;-56
2024/01/28 01:56:34;;;;;;;5.13;2.47;;;19.70;32.20;;;;;;5112217;28;20030;-55
2024/01/28 01:59:02;;;;;;;4.18;2.25;;;19.70;32.20;;;;;;5113473;28;20031;-56
2024/01/28 02:01:29;;;;;;;4.90;2.60;;;19.70;32.20;;;;;;5113692;28;20036;-55
2024/01/28 02:03:57;;;;;;;3.13;1.95;;;19.70;32.20;;;;;;5113090;28;20281;-56
2024/01/28 02:06:23;;;;;;;4.68;2.33;;;19.70;32.20;;;;;;5113508;28;20411;-52
2024/01/28 02:08:49;;;;;;;4.35;2.13;;;19.70;32.20;;;;;;5113620;28;20058;-57
2024/01/28 02:11:15;;;;;;;5.22;2.45;;;19.70;32.20;;;;;;5113438;28;20067;-56
2024/01/28 02:13:41;;;;;;;4.78;2.10;;;19.70;32.20;;;;;;5113380;28;20438;-57
2024/01/28 02:16:07;;;;;;;3.53;2.10;;;19.70;32.20;;;;;;5113765;28;20027;-56
2024/01/28 02:18:32;;;;;;;4.03;1.98;;;19.70;32.20;;;;;;5112960;28;20346;-53
2024/01/28 02:20:58;;;;;;;5.10;2.30;;;19.60;32.10;;;;;;5113437;28;20057;-53
2024/01/28 02:23:24;;;;;;;4.13;2.00;;;19.70;32.20;;;;;;5113657;28;20327;-56
2024/01/28 02:25:50;;;;;;;4.95;2.53;;;19.70;32.20;;;;;;5113636;28;20024;-54
2024/01/28 02:28:16;;;;;;;3.83;2.22;;;19.70;32.20;;;;;;5113428;28;20101;-55
2024/01/28 02:30:42;;;;;;;4.40;2.30;;;19.70;32.20;;;;;;5114007;28;20195;-55
2024/01/28 02:33:08;;;;;;;4.35;2.28;;;19.60;32.10;;;;;;5117395;28;20015;-54
2024/01/28 02:35:34;;;;;;;3.65;2.15;;;19.60;32.10;;;;;;5098830;28;20077;-57
2024/01/28 02:38:00;;;;;;;4.10;2.08;;;19.60;32.10;;;;;;5117520;28;20456;-51
2024/01/28 02:40:26;;;;;;;3.88;1.95;;;19.60;32.10;;;;;;5117573;28;20368;-52
2024/01/28 02:42:52;;;;;;;3.85;2.20;;;19.60;32.00;;;;;;5116941;28;20044;-54
2024/01/28 02:45:18;;;;;;;3.85;2.10;;;19.60;32.00;;;;;;5117541;28;20015;-53
2024/01/28 02:47:44;;;;;;;4.00;2.30;;;19.60;32.10;;;;;;5116978;28;20028;-55
2024/01/28 02:50:10;;;;;;;5.18;2.17;;;19.60;32.10;;;;;;5097910;28;20458;-56
2024/01/28 02:52:35;;;;;;;3.30;2.00;;;19.60;32.10;;;;;;5117210;28;20055;-55
2024/01/28 02:55:01;;;;;;;4.90;2.45;;;19.60;32.00;;;;;;5117133;28;20051;-51
2024/01/28 02:57:27;;;;;;;3.92;2.30;;;19.60;32.00;;;;;;5116839;28;20335;-55
2024/01/28 02:59:53;;;;;;;5.28;2.33;;;19.60;32.00;;;;;;5117105;28;20030;-54
2024/01/28 03:02:18;;;;;;;4.15;2.45;;;19.60;32.00;;;;;;5116718;28;20063;-55
2024/01/28 03:04:44;;;;;;;4.15;2.08;;;19.60;32.00;;;;;;5116350;28;20393;-56
2024/01/28 03:07:10;;;;;;;5.20;2.30;;;19.60;32.00;;;;;;5116418;28;20077;-54
2024/01/28 03:09:36;;;;;;;2.53;1.75;;;19.50;32.00;;;;;;5116794;28;20044;-54
2024/01/28 03:12:02;;;;;;;3.88;1.92;;;19.50;32.00;;;;;;5116758;28;20031;-55
2024/01/28 03:14:28;;;;;;;4.30;2.10;;;19.50;32.00;;;;;;5098927;28;20392;-56
2024/01/28 03:16:53;;;;;;;4.18;2.40;;;19.50;32.00;;;;;;5116999;28;20016;-55
2024/01/28 03:19:19;;;;;;;4.25;2.13;;;19.50;31.90;;;;;;5116175;28;20070;-57
2024/01/28 03:21:45;;;;;;;3.50;2.00;;;19.50;31.90;;;;;;5116142;28;20019;-53
2024/01/28 03:24:11;;;;;;;5.22;2.15;;;19.50;31.90;;;;;;5114474;28;20106;-55
2024/01/28 03:26:37;;;;;;;3.60;2.00;;;19.50;31.90;;;;;;5116271;28;20440;-57
2024/01/28 03:29:04;;;;;;;4.90;2.30;;;19.50;31.90;;;;;;5116960;28;20020;-56
2024/01/28 03:31:30;;;;;;;6.03;2.60;;;19.50;31.90;;;;;;5115972;28;20039;-53
2024/01/28 03:33:57;;;;;;;5.10;2.22;;;19.50;31.80;;;;;;5115769;28;20519;-52
2024/01/28 03:36:24;;;;;;;3.95;2.05;;;19.50;31.80;;;;;;5116574;28;20028;-54
2024/01/28 03:38:49;;;;;;;4.00;2.20;;;19.50;31.80;;;;;;5116391;28;20020;-54
2024/01/28 03:41:16;;;;;;;3.17;1.75;;;19.50;31.80;;;;;;5115761;28;20419;-51
2024/01/28 03:43:48;;;;;;;3.72;1.88;;;19.50;31.80;;;;;;5115092;28;20104;-56
2024/01/28 03:46:15;;;;;;;4.28;2.00;;;19.50;31.80;;;;;;5115344;28;20671;-56
2024/01/28 03:48:41;;;;;;;3.63;2.13;;;19.40;31.80;;;;;;5112637;28;20094;-57
2024/01/28 03:51:06;;;;;;;4.45;1.75;;;19.40;31.80;;;;;;5105402;28;20117;-57
2024/01/28 03:53:33;;;;;;;5.10;2.50;;;19.40;31.80;;;;;;5116340;28;20054;-56
2024/01/28 03:55:59;;;;;;;3.25;1.85;;;19.40;31.80;;;;;;5115980;28;20091;-55
2024/01/28 03:58:24;;;;;;;4.25;1.63;;;19.40;31.80;;;;;;5115402;28;20024;-56
2024/01/28 04:00:50;;;;;;;3.03;1.70;;;19.40;31.80;;;;;;5097768;28;20350;-54
2024/01/28 04:03:16;;;;;;;3.95;1.90;;;19.40;31.80;;;;;;5115503;28;20051;-55
2024/01/28 04:05:43;;;;;;;3.65;1.83;;;19.40;31.80;;;;;;5115351;28;20051;-52
2024/01/28 04:08:10;;;;;;;4.45;2.10;;;19.40;31.80;;;;;;5115946;28;20050;-55
2024/01/28 04:10:36;;;;;;;4.43;2.22;;;19.40;31.70;;;;;;5115755;28;20036;-53
2024/01/28 04:13:01;;;;;;;4.70;2.03;;;19.40;31.70;;;;;;5115543;28;20020;-54
2024/01/28 04:15:27;;;;;;;3.90;1.90;;;19.40;31.70;;;;;;5115380;28;20031;-55
2024/01/28 04:17:53;;;;;;;4.00;1.77;;;19.40;31.70;;;;;;5115106;28;20034;-56
2024/01/28 04:20:19;;;;;;;3.22;1.77;;;19.40;31.70;;;;;;5115643;28;20360;-57
2024/01/28 04:22:45;;;;;;;3.90;2.13;;;19.40;31.70;;;;;;5115502;28;20019;-55
2024/01/28 04:25:12;;;;;;;3.20;1.63;;;19.40;31.70;;;;;;5115462;28;20024;-57
2024/01/28 04:27:38;;;;;;;3.63;1.75;;;19.40;31.70;;;;;;5097395;28;20149;-52
2024/01/28 04:30:05;;;;;;;3.10;1.83;;;19.40;31.70;;;;;;5114837;28;20448;-53
2024/01/28 04:32:31;;;;;;;3.70;1.92;;;19.30;31.60;;;;;;5114661;28;20083;-55
2024/01/28 04:34:57;;;;;;;3.33;1.85;;;19.30;31.60;;;;;;5097136;28;20425;-56
2024/01/28 04:37:23;;;;;;;4.20;1.98;;;19.40;31.60;;;;;;5114895;28;20031;-53
2024/01/28 04:39:50;;;;;;;3.13;1.85;;;19.30;31.60;;;;;;5115284;28;20023;-51
2024/01/28 04:42:21;;;;;;;2.85;1.73;;;19.40;31.60;;;;;;5114716;28;20055;-57
2024/01/28 04:44:48;;;;;;;3.70;1.67;;;19.30;31.60;;;;;;5114728;28;20034;-54
2024/01/28 04:47:14;;;;;;;4.30;2.10;;;19.30;31.60;;;;;;5114446;28;20088;-51
2024/01/28 04:49:40;;;;;;;3.45;1.70;;;19.30;31.60;;;;;;5114547;28;20421;-49
2024/01/28 04:52:05;;;;;;;4.28;1.83;;;19.30;31.50;;;;;;5097115;28;20036;-52
2024/01/28 04:54:31;;;;;;;4.40;2.00;;;19.30;31.50;;;;;;5096207;28;20339;-55
2024/01/28 04:56:58;;;;;;;4.30;1.98;;;19.30;31.50;;;;;;5114523;28;20023;-56
2024/01/28 04:59:24;;;;;;;3.17;1.70;;;19.30;31.60;;;;;;5114766;28;20038;-53
2024/01/28 05:01:50;;;;;;;4.07;1.80;;;19.30;31.60;;;;;;5114364;28;20027;-55
2024/01/28 05:04:16;;;;;;;4.28;1.83;;;19.30;31.60;;;;;;5113764;28;20311;-56
2024/01/28 05:06:42;;;;;;;3.35;1.55;;;19.30;31.60;;;;;;5114140;28;20028;-56
2024/01/28 05:09:10;;;;;;;3.63;1.60;;;19.30;31.60;;;;;;5114211;28;20034;-54
2024/01/28 05:11:36;;;;;;;3.67;2.00;;;19.30;31.60;;;;;;5114264;28;20044;-56
2024/01/28 05:14:02;;;;;;;2.85;1.42;;;19.20;31.50;;;;;;5114565;28;20058;-53
2024/01/28 05:16:28;;;;;;;3.25;1.50;;;19.30;31.60;;;;;;5114165;28;20073;-56
2024/01/28 05:18:54;;;;;;;3.22;1.75;;;19.20;31.50;;;;;;5113911;28;20024;-54
2024/01/28 05:21:19;;;;;;;3.78;1.95;;;19.30;31.50;;;;;;5113645;28;20091;-57
2024/01/28 05:23:48;;;;;;;3.15;1.60;;;19.20;31.50;;;;;;5114307;28;20024;-55
2024/01/28 05:26:14;;;;;;;3.83;1.70;;;19.20;31.50;;;;;;5114341;28;20034;-64
2024/01/28 05:28:40;;;;;;;3.35;1.40;;;19.30;31.50;;;;;;5114182;28;20023;-53
2024/01/28 05:31:08;;;;;;;3.08;1.50;;;19.20;31.50;;;;;;5113443;28;20096;-54
2024/01/28 05:33:37;;;;;;;3.38;1.52;;;19.20;31.60;;;;;;5114288;28;20024;-52
2024/01/28 05:36:13;;;;;;;2.97;1.65;;;19.20;31.60;;;;;;5113798;28;20023;-51
2024/01/28 05:38:40;;;;;;;4.05;1.92;;;19.20;31.60;;;;;;5113697;28;20423;-56
2024/01/28 05:41:08;;;;;;;4.22;1.85;;;19.20;31.60;;;;;;5113871;28;20027;-53
2024/01/28 05:43:35;;;;;;;4.25;2.20;;;19.20;31.60;;;;;;5113673;28;20460;-53
2024/01/28 05:46:04;;;;;;;3.97;1.92;;;19.20;31.60;;;;;;5113978;28;20032;-55
2024/01/28 05:48:31;;;;;;;4.30;1.88;;;19.20;31.60;;;;;;5114134;28;20023;-55
2024/01/28 05:50:56;;;;;;;3.53;1.90;;;19.20;31.50;;;;;;5113056;28;20078;-54
2024/01/28 05:53:25;;;;;;;3.42;1.67;;;19.20;31.50;;;;;;5114295;28;20403;-51
2024/01/28 05:55:52;;;;;;;3.42;1.60;;;19.10;31.40;;;;;;5113597;28;20076;-54
2024/01/28 05:58:19;;;;;;;4.57;1.95;;;19.10;31.40;;;;;;5113715;28;20957;-54
2024/01/28 06:00:46;;;;;;;3.42;1.55;;;19.20;31.50;;;;;;5111257;28;20031;-55
2024/01/28 06:03:12;;;;;;;3.22;1.58;;;19.10;31.40;;;;;;5113705;28;20094;-51
2024/01/28 06:05:38;;;;;;;2.65;1.40;;;19.10;31.40;;;;;;5112024;28;20045;-56
2024/01/28 06:08:04;;;;;;;3.50;1.73;;;19.10;31.40;;;;;;5113929;28;20039;-56
2024/01/28 06:10:30;;;;;;;3.50;1.70;;;19.10;31.40;;;;;;5111254;28;20032;-53
2024/01/28 06:12:56;;;;;;;3.05;1.50;;;19.10;31.40;;;;;;5113665;28;20250;-54
2024/01/28 06:15:22;;;;;;;2.88;1.50;;;19.10;31.40;;;;;;5095306;28;20031;-53
2024/01/28 06:17:48;;;;;;;3.85;1.83;;;19.10;31.40;;;;;;5113461;28;20038;-51
2024/01/28 06:20:13;;;;;;;3.47;1.50;;;19.10;31.40;;;;;;5110802;28;20107;-54
2024/01/28 06:22:39;;;;;;;4.10;1.60;;;19.10;31.40;;;;;;5113241;28;20027;-53
2024/01/28 06:25:07;;;;;;;2.90;1.60;;;19.10;31.30;;;;;;5113606;28;20027;-52
2024/01/28 06:27:33;;;;;;;4.15;1.52;;;19.10;31.40;;;;;;5113587;28;20035;-55
2024/01/28 06:29:59;;;;;;;3.60;1.70;;;19.10;31.40;;;;;;5110889;28;20036;-53
2024/01/28 06:32:25;;;;;;;2.60;1.52;;;19.10;31.40;;;;;;5112887;28;20031;-56
2024/01/28 06:34:52;;;;;;;4.00;1.88;;;19.10;31.30;;;;;;5113422;28;20350;-53
2024/01/28 06:37:18;;;;;;;3.83;1.80;;;19.10;31.30;;;;;;5095088;28;20349;-57
2024/01/28 06:39:49;;;;;;;4.03;2.20;;;19.10;31.30;;;;;;5111083;28;20023;-54
2024/01/28 06:42:16;;;;;;;3.95;1.75;;;19.00;31.20;;;;;;5112545;28;20123;-54
2024/01/28 06:44:42;;;;;;;3.45;1.63;;;19.10;31.30;;;;;;5113127;28;20110;-55
2024/01/28 06:47:07;;;;;;;2.97;1.63;;;19.00;31.20;;;;;;5113363;28;20449;-54
2024/01/28 06:49:33;;;;;;;2.90;1.73;;;19.00;31.10;;;;;;5112876;28;20019;-56
2024/01/28 06:51:59;;;;;;;3.53;1.38;;;19.00;31.10;;;;;;5094902;28;20024;-54
2024/01/28 06:54:25;;;;;;;2.60;1.60;;;19.00;31.10;;;;;;5113306;28;20599;-57
2024/01/28 06:56:50;;;;;;;3.13;1.83;;;19.00;31.10;;;;;;5113129;28;20020;-55
2024/01/28 06:59:18;;;;;;;2.58;1.42;;;19.00;31.10;;;;;;5113498;28;20445;-54
2024/01/28 07:01:45;;;;;;;3.05;1.45;;;19.00;31.10;;;;;;5113226;28;20106;-55
2024/01/28 07:04:11;;;;;;;3.17;1.73;;;19.00;31.10;;;;;;5113152;28;20035;-53
2024/01/28 07:06:36;;;;;;;2.95;1.60;;;19.00;31.10;;;;;;5113060;28;20358;-52
2024/01/28 07:09:02;;;;;;;3.22;1.60;;;19.00;31.10;;;;;;5112093;28;20093;-55
2024/01/28 07:11:28;;;;;;;4.25;1.70;;;19.00;31.20;;;;;;5113026;28;20115;-56
2024/01/28 07:13:54;;;;;;;3.30;1.45;;;19.00;31.30;;;;;;5112848;28;20016;-52
2024/01/28 07:16:20;;;;;;;2.42;1.13;;;19.00;31.30;;;;;;5112878;28;20028;-58
2024/01/28 07:18:46;;;;;;;4.15;1.55;;;19.00;31.30;;;;;;5115822;28;20027;-57
2024/01/28 07:21:13;;;;;;;4.25;1.77;;;19.00;31.30;;;;;;5116084;28;20832;-56
2024/01/28 07:23:40;;;;;;;2.65;1.30;;;19.00;31.30;;;;;;5116689;28;20028;-53
2024/01/28 07:26:08;;;;;;;3.28;1.30;;;19.00;31.30;;;;;;5116353;28;20024;-55
2024/01/28 07:28:34;;;;;;;3.47;1.52;;;19.00;31.30;;;;;;5116517;28;20032;-57
2024/01/28 07:31:00;;;;;;;3.13;1.85;;;19.00;31.30;;;;;;5116243;28;20126;-56
2024/01/28 07:33:25;;;;;;;3.70;1.60;;;19.00;31.30;;;;;;5116203;28;20019;-53
2024/01/28 07:35:51;;;;;;;3.08;1.40;;;19.00;31.30;;;;;;5115939;28;20460;-57
2024/01/28 07:38:17;;;;;;;3.78;1.60;;;18.90;31.30;;;;;;5116567;28;20027;-52
2024/01/28 07:40:42;;;;;;;3.83;1.60;;;18.90;31.30;;;;;;5115829;28;20031;-55
2024/01/28 07:43:08;;;;;;;2.92;1.25;;;19.00;31.40;;;;;;5116883;28;20051;-57
2024/01/28 07:45:37;;;;;;;1.55;1.10;;;18.90;31.30;;;;;;5117636;28;20035;-53
2024/01/28 07:48:03;;;;;;;2.88;1.33;;;19.00;31.30;;;;;;5117608;28;20457;-56
2024/01/28 07:50:29;;;;;;;2.38;1.13;;;18.90;31.20;;;;;;5117387;28;20419;-58
2024/01/28 07:52:55;;;;;;;3.08;1.52;;;18.90;31.20;;;;;;5117443;28;20084;-55
2024/01/28 07:55:21;;;;;;;2.38;1.30;;;19.00;31.30;;;;;;5117716;28;20342;-58
2024/01/28 07:57:47;;;;;;;2.90;1.83;;;18.90;31.20;;;;;;5117492;28;20361;-58
2024/01/28 08:00:14;;;;;;;2.78;1.42;;;18.90;31.20;;;;;;5117902;28;20115;-56
2024/01/28 08:02:39;;;;;;;3.55;1.70;;;18.90;31.20;;;;;;5117338;28;20035;-59
2024/01/28 08:05:06;;;;;;;2.72;1.50;;;18.90;31.30;;;;;;5116474;28;20035;-57
2024/01/28 08:07:31;;;;;;;3.95;1.48;;;18.90;31.30;;;;;;5117398;28;20020;-57
2024/01/28 08:09:57;;;;;;;2.00;1.10;;;18.90;31.30;;;;;;5098880;28;20039;-55
2024/01/28 08:12:23;;;;;;;2.58;1.20;;;18.90;31.30;;;;;;5117344;28;20077;-56
2024/01/28 08:14:49;;;;;;;3.95;1.55;;;18.90;31.30;;;;;;5116447;28;20019;-53
2024/01/28 08:17:15;;;;;;;4.25;1.48;;;18.90;31.30;;;;;;5116721;28;20038;-53
2024/01/28 08:19:41;;;;;;;2.88;1.33;;;18.90;31.30;;;;;;5116799;28;20028;-54
2024/01/28 08:22:06;;;;;;;3.10;1.50;;;18.90;31.30;;;;;;5116671;28;20500;-56
2024/01/28 08:24:32;;;;;;;3.30;1.10;;;18.90;31.30;;;;;;5116849;28;20032;-54
2024/01/28 08:26:58;;;;;;;3.88;1.55;;;18.90;31.40;;;;;;5116580;28;20034;-56
2024/01/28 08:29:25;;;;;;;3.03;1.38;;;18.90;31.40;;;;;;5116380;28;20092;-55
2024/01/28 08:31:51;;;;;;;2.80;1.20;;;18.90;31.60;;;;;;5116954;28;20063;-53
2024/01/28 08:34:16;;;;;;;3.65;1.35;;;18.90;31.70;;;;;;5115706;28;20473;-56
2024/01/28 08:36:42;;;;;;;3.00;1.38;;;18.90;31.70;;;;;;5116305;28;20027;-54
2024/01/28 08:39:09;;;;;;;3.85;1.50;;;18.90;31.70;;;;;;5115458;28;20093;-56
2024/01/28 08:41:38;;;;;;;2.58;1.20;;;18.90;31.70;;;;;;5116461;28;20122;-53
2024/01/28 08:44:05;;;;;;;1.77;0.90;;;18.90;31.70;;;;;;5116872;28;20032;-56
2024/01/28 08:46:31;;;;;;;3.83;1.08;;;18.90;31.80;;;;;;5116077;28;20043;-55
2024/01/28 08:48:57;;;;;;;4.32;1.33;;;18.90;31.90;;;;;;5116036;28;20032;-55
2024/01/28 08:51:23;;;;;;;4.78;1.42;;;19.00;32.10;;;;;;5114821;28;20048;-54
2024/01/28 08:53:50;;;;;;;3.00;1.40;;;19.00;32.30;;;;;;5115713;28;20034;-56
2024/01/28 08:56:15;;;;;;;5.90;1.80;;;19.00;32.40;;;;;;5097727;28;20095;-59
2024/01/28 08:58:41;;;;;;;6.25;2.17;;;19.00;33.10;;;;;;5115207;28;20115;-53
2024/01/28 09:01:08;;;;;;;6.30;1.95;;;19.10;33.30;;;;;;5115237;28;20032;-54
2024/01/28 09:03:33;;;;;;;2.83;1.48;;;19.10;32.80;;;;;;5114714;28;20027;-51
2024/01/28 09:06:02;;;;;;;3.50;1.83;;;19.20;32.90;;;;;;5115951;28;20080;-53
2024/01/28 09:08:30;;;;;;;3.97;1.70;;;19.20;32.80;;;;;;5116073;28;20030;-54
2024/01/28 09:10:56;;;;;;;3.72;1.60;;;19.30;32.80;;;;;;5115343;28;20028;-54
2024/01/28 09:13:24;;;;;;;3.95;1.42;;;19.40;32.80;;;;;;5115470;28;20440;-56
2024/01/28 09:15:50;;;;;;;5.72;1.35;;;19.40;32.60;;;;;;5114923;28;20023;-55
2024/01/28 09:18:16;;;;;;;2.65;1.30;;;19.40;32.60;;;;;;5115570;28;20032;-54
2024/01/28 09:20:42;;;;;;;3.28;1.23;;;19.50;32.50;;;;;;5115217;28;20027;-54
2024/01/28 09:23:08;;;;;;;3.97;1.20;;;19.60;32.50;;;;;;5114343;28;20038;-56
2024/01/28 09:25:34;;;;;;;4.18;1.23;;;19.60;32.30;;;;;;5115205;28;20034;-54
2024/01/28 09:28:00;;;;;;;3.30;1.45;;;19.60;32.30;;;;;;5115742;28;20031;-56
2024/01/28 09:30:26;;;;;;;4.25;1.42;;;19.70;32.20;;;;;;5115555;28;20039;-54
2024/01/28 09:32:51;;;;;;;2.75;1.33;;;19.80;32.20;;;;;;5112558;28;20034;-63
2024/01/28 09:35:17;;;;;;;3.50;1.30;;;19.80;32.20;;;;;;5101131;28;20359;-70
2024/01/28 09:37:43;;;;;;;2.15;1.20;;;19.90;32.30;;;;;;5112425;28;20446;-68
2024/01/28 09:40:13;;;;;;;1.25;0.90;;;19.90;32.20;;;;;;5111857;28;20114;-55
2024/01/28 09:42:59;;;;;;;2.55;1.00;;;19.80;32.10;;;;;;5110413;28;20044;-54
2024/01/28 09:45:27;;;;;;;2.08;1.00;;;19.70;32.00;;;;;;5092876;28;20106;-59
2024/01/28 09:47:54;;;;;;;2.78;1.42;;;19.70;32.00;;;;;;5115470;28;20035;-62
2024/01/28 09:50:20;;;;;;;1.83;1.02;;;19.80;32.00;;;;;;5114742;28;20121;-59
2024/01/28 09:52:46;;;;;;;2.65;1.20;;;19.80;31.90;;;;;;5115372;28;20035;-61
2024/01/28 09:55:12;;;;;;;3.17;1.10;;;19.90;31.90;;;;;;5096755;28;20019;-59
2024/01/28 09:57:38;;;;;;;2.75;1.23;;;19.90;31.90;;;;;;5097383;28;20362;-60
2024/01/28 10:00:07;;;;;;;2.38;1.00;;;20.00;31.90;;;;;;5096537;28;20034;-60
2024/01/28 10:02:39;;;;;;;3.05;0.98;;;20.00;31.80;;;;;;5114914;28;20100;-60
2024/01/28 10:05:10;;;;;;;2.90;1.30;;;20.00;31.80;;;;;;5113230;28;20032;-60
2024/01/28 10:07:47;;;;;;;2.75;0.93;;;20.10;31.90;;;;;;5095306;28;20427;-60
2024/01/28 10:10:18;;;;;;;4.40;1.20;;;20.10;31.90;;;;;;5113183;28;20063;-60
2024/01/28 10:12:49;;;;;;;3.25;1.17;;;20.10;31.90;;;;;;5096752;28;20443;-60
2024/01/28 10:15:20;;;;;;;3.15;1.33;;;20.10;31.90;;;;;;5113896;28;20468;-59
2024/01/28 10:17:48;;;;;;;2.75;1.38;;;20.20;32.00;;;;;;5114808;28;20031;-60
2024/01/28 10:20:20;;;;;;;2.15;1.02;;;20.20;32.00;;;;;;5114627;28;20292;-60
2024/01/28 10:22:46;;;;;;;3.90;1.30;;;20.20;32.00;;;;;;5096258;28;20523;-58
2024/01/28 10:25:16;;;;;;;2.63;1.05;;;20.30;32.00;;;;;;5097010;28;20055;-58
2024/01/28 10:27:43;;;;;;;2.30;1.02;;;20.30;32.10;;;;;;5114256;28;20042;-59
2024/01/28 10:30:11;;;;;;;2.22;0.93;;;20.30;32.80;;;;;;5114585;28;20111;-58
2024/01/28 10:32:37;;;;;;;3.90;1.13;;;20.30;32.20;;;;;;5114460;28;20034;-60
2024/01/28 10:35:07;;;;;;;2.90;1.10;;;20.40;32.30;;;;;;5096581;28;20040;-53
2024/01/28 10:37:34;;;;;;;2.53;1.40;;;20.40;32.40;;;;;;5115104;28;20043;-55
2024/01/28 10:40:05;;;;;;;6.10;3.10;;;20.40;32.70;;;;;;5114467;28;20043;-54
2024/01/28 10:42:36;;;;;;;7.50;4.18;;;20.40;33.60;;;;;;5114750;28;20097;-58
2024/01/28 10:45:06;;;;;;;8.05;4.93;;;20.50;34.80;;;;;;5114336;28;20023;-58
2024/01/28 10:47:35;;;;;;;5.10;2.80;;;20.50;36.10;;;;;;5114335;28;20032;-61
2024/01/28 10:50:05;;;;;;;3.72;1.63;;;20.50;36.30;;;;;;5095840;28;20050;-62
2024/01/28 10:52:32;;;;;;;1.98;1.30;;;20.40;35.30;;;;;;5116181;28;20053;-61
2024/01/28 10:55:00;;;;;;;3.67;1.83;;;20.30;34.90;;;;;;5119216;28;20059;-63
2024/01/28 10:57:27;;;;;;;5.65;3.17;;;20.10;35.20;;;;;;5101152;28;20333;-64
2024/01/28 10:59:53;;;;;;;6.53;3.78;;;20.10;36.10;;;;;;5099662;28;20060;-62
2024/01/28 11:02:20;;;;;;;13.30;5.45;;;20.20;37.00;;;;;;5100521;28;20042;-60
2024/01/28 11:04:47;;;;;;;15.00;6.45;;;20.20;37.90;;;;;;5083342;28;20450;-63
2024/01/28 11:07:16;;;;;;;10.40;5.07;;;20.20;38.60;;;;;;5117846;28;20027;-62
2024/01/28 11:09:42;;;;;;;8.30;3.50;;;20.30;39.00;;;;;;5117296;28;20024;-64
2024/01/28 11:12:09;;;;;;;6.65;3.30;;;20.30;38.60;;;;;;5117780;28;20039;-63
2024/01/28 11:14:35;;;;;;;6.05;2.50;;;20.30;38.00;;;;;;5117771;28;20024;-62
2024/01/28 11:17:00;;;;;;;3.90;2.03;;;20.30;37.60;;;;;;5118367;28;20042;-63
2024/01/28 11:19:29;;;;;;;5.38;2.10;;;20.40;37.30;;;;;;5118087;28;20027;-64
2024/01/28 11:22:02;;;;;;;4.53;1.67;;;20.40;37.00;;;;;;5118278;28;20039;-62
2024/01/28 11:24:28;;;;;;;2.53;1.60;;;20.40;36.70;;;;;;5117734;28;20028;-62
2024/01/28 11:26:58;;;;;;;4.15;1.80;;;20.50;36.60;;;;;;5117999;28;20070;-63
2024/01/28 11:29:33;;;;;;;3.63;1.70;;;20.50;36.40;;;;;;5117112;28;20088;-64
2024/01/28 11:32:04;;;;;;;3.35;1.75;;;20.50;36.30;;;;;;5117431;28;20039;-63
2024/01/28 11:34:31;;;;;;;3.70;1.70;;;20.50;36.20;;;;;;5117323;28;20404;-63
2024/01/28 11:36:59;;;;;;;4.40;1.95;;;20.60;36.10;;;;;;5117793;28;20063;-64
2024/01/28 11:39:46;;;;;;;6.03;2.20;;;20.60;36.00;;;;;;5098168;28;20077;-61
2024/01/28 11:42:13;;;;;;;2.75;1.23;;;20.60;35.90;;;;;;5116180;28;20051;-64
2024/01/28 11:44:40;;;;;;;3.05;1.35;;;20.60;35.80;;;;;;5113680;28;20437;-63
2024/01/28 11:47:07;;;;;;;4.03;1.45;;;20.60;35.70;;;;;;5116175;28;20089;-62
2024/01/28 11:49:33;;;;;;;3.70;1.73;;;20.70;35.70;;;;;;5116187;28;20502;-61
2024/01/28 11:51:59;;;;;;;3.85;1.50;;;20.60;35.60;;;;;;5115746;28;20096;-62
2024/01/28 11:54:25;;;;;;;4.55;1.60;;;20.70;35.60;;;;;;5116101;28;20032;-62
2024/01/28 11:56:51;;;;;;;3.17;1.52;;;20.70;35.50;;;;;;5116212;28;20088;-62
2024/01/28 11:59:16;;;;;;;2.92;1.67;;;20.80;35.60;;;;;;5114995;28;20024;-62
2024/01/28 12:01:42;;;;;;;3.00;1.40;;;20.70;35.40;;;;;;5115767;28;20027;-62
2024/01/28 12:04:09;;;;;;;3.00;1.48;;;20.80;35.40;;;;;;5115285;28;20027;-62
2024/01/28 12:06:36;;;;;;;4.95;1.45;;;20.80;35.40;;;;;;5115907;28;20088;-63
2024/01/28 12:09:02;;;;;;;3.72;1.58;;;20.80;35.50;;;;;;5115943;28;20019;-62
2024/01/28 12:11:31;;;;;;;3.85;1.67;;;20.80;35.30;;;;;;5115295;28;20038;-63
2024/01/28 12:13:57;;;;;;;3.28;1.58;;;20.80;35.30;;;;;;5114823;28;20043;-63
2024/01/28 12:16:24;;;;;;;2.33;1.35;;;20.80;35.20;;;;;;5115795;28;20032;-62
2024/01/28 12:18:54;;;;;;;3.25;1.40;;;20.90;35.30;;;;;;5115222;28;20032;-63
2024/01/28 12:21:29;;;;;;;2.67;1.35;;;20.90;35.20;;;;;;5115601;28;20035;-64
2024/01/28 12:23:59;;;;;;;3.08;1.52;;;20.90;35.20;;;;;;5115707;28;20031;-63
2024/01/28 12:26:25;;;;;;;2.90;1.35;;;20.90;35.10;;;;;;5114933;28;20052;-62
2024/01/28 12:28:52;;;;;;;2.67;1.25;;;20.90;35.10;;;;;;5115740;28;20035;-61
2024/01/28 12:31:19;;;;;;;3.25;1.92;;;20.90;35.00;;;;;;5114020;28;20184;-62
2024/01/28 12:33:48;;;;;;;5.15;2.90;;;21.00;35.60;;;;;;5114396;28;20027;-60
2024/01/28 12:36:15;;;;;;;7.53;4.13;;;21.00;36.60;;;;;;5113271;28;20028;-62
2024/01/28 12:38:42;;;;;;;7.20;4.60;;;21.00;37.80;;;;;;5115215;27;20165;-62
2024/01/28 12:41:10;;;;;;;7.43;4.72;;;21.00;38.80;;;;;;5116390;28;20028;-66
2024/01/28 12:43:40;;;;;;;11.35;5.50;;;21.10;39.70;;;;;;5116090;28;20138;-65